Time;durP1;ratioP1;P1;durP2;ratioP2;P2;SDS_P1;SDS_P2;PMS_P1;PMS_P2;Temp;Humidity;BMP_temperature;BMP_pressure;BME280_temperature;BME280_humidity;BME280_pressure;Samples;Min_cycle;Max_cycle;Signal;HPM_P1;HPM_P2
2022/06/22 00:00:51;;;;;;;9.48;5.63;;;;;;;9.53;91.17;101144.47;10446947;28;20051;-76
2022/06/22 00:05:52;;;;;;;13.98;6.65;;;;;;;9.51;91.53;101130.41;10447187;28;20166;-77
2022/06/22 00:10:54;;;;;;;8.63;5.10;;;;;;;9.51;91.62;101117.34;10453954;28;20145;-77
2022/06/22 00:16:02;;;;;;;;;;;;;;;9.42;91.65;101117.75;10471682;28;20086;-77
2022/06/22 00:21:05;;;;;;;9.95;5.20;;;;;;;9.30;91.50;101125.78;10429598;28;19963;-77
2022/06/22 00:26:22;;;;;;;10.65;5.50;;;;;;;9.22;91.99;101116.59;10389572;28;20034;-77
2022/06/22 00:31:36;;;;;;;8.70;5.65;;;;;;;9.25;92.78;101129.84;10432515;28;20407;-77
2022/06/22 00:36:46;;;;;;;8.93;6.47;;;;;;;9.18;92.52;101125.06;10471855;28;20040;-77
2022/06/22 00:41:52;;;;;;;13.40;6.22;;;;;;;9.13;92.73;101111.78;10487976;28;20049;-77
2022/06/22 00:47:02;;;;;;;11.27;5.55;;;;;;;9.06;93.00;101114.84;10416897;28;20048;-77
2022/06/22 00:52:05;;;;;;;10.48;6.63;;;;;;;9.09;94.08;101136.78;10438322;28;20480;-77
2022/06/22 00:57:12;;;;;;;11.30;6.32;;;;;;;9.03;93.43;101140.78;10434284;28;20048;-77
2022/06/22 01:02:18;;;;;;;11.07;7.05;;;;;;;8.98;93.74;101117.00;10427729;28;20416;-77
2022/06/22 01:07:36;;;;;;;17.30;7.72;;;;;;;8.93;94.43;101110.59;10445815;28;20103;-77
2022/06/22 01:12:52;;;;;;;11.77;7.57;;;;;;;8.84;94.47;101083.97;10425890;28;20116;-77
2022/06/22 01:18:01;;;;;;;13.68;8.38;;;;;;;8.75;94.29;101077.41;10402813;28;20045;-77
2022/06/22 01:23:07;;;;;;;10.05;7.65;;;;;;;8.81;95.24;101087.31;10424808;28;20404;-77
2022/06/22 01:28:10;;;;;;;10.05;6.90;;;;;;;8.86;95.80;101091.09;10467808;28;20139;-77
2022/06/22 01:39:26;;;;;;;12.07;9.10;;;;;;;8.77;94.89;101101.88;10484000;28;20045;-77
2022/06/22 01:44:46;;;;;;;17.83;8.00;;;;;;;8.74;95.82;101080.81;10450558;28;20056;-77
2022/06/22 01:49:49;;;;;;;21.75;9.20;;;;;;;8.73;95.88;101085.97;10469390;28;20036;-77
2022/06/22 01:54:59;;;;;;;14.50;7.40;;;;;;;8.72;96.26;101090.25;10467065;28;20033;-77
2022/06/22 02:00:05;;;;;;;14.57;8.45;;;;;;;8.68;96.33;101080.47;10442544;28;20028;-77
2022/06/22 02:05:31;;;;;;;16.02;8.80;;;;;;;8.75;97.10;101098.28;10467961;28;20040;-77
2022/06/22 02:10:51;;;;;;;15.27;8.30;;;;;;;8.69;96.72;101095.31;10413088;28;20036;-77
2022/06/22 02:16:17;;;;;;;17.90;11.00;;;;;;;8.59;96.33;101083.44;10439439;28;20044;-77
2022/06/22 02:21:23;;;;;;;15.57;10.68;;;;;;;8.53;97.16;101093.50;10475178;28;20357;-77
2022/06/22 02:26:36;;;;;;;17.58;10.77;;;;;;;8.57;97.10;101072.00;10466046;28;20047;-77
2022/06/22 02:31:37;;;;;;;15.38;10.77;;;;;;;8.66;97.37;101076.84;10449262;28;20029;-77
2022/06/22 02:36:40;;;;;;;16.63;10.30;;;;;;;8.71;98.13;101092.81;10465250;28;20428;-77
2022/06/22 02:47:21;;;;;;;17.42;9.90;;;;;;;8.64;97.75;101107.19;10399903;28;20496;-77
2022/06/22 02:52:23;;;;;;;18.03;10.77;;;;;;;8.62;97.67;101108.78;10448527;28;20044;-77
2022/06/22 02:57:55;;;;;;;18.40;11.60;;;;;;;8.66;98.49;101097.72;10466103;28;20058;-77
2022/06/22 03:02:58;;;;;;;17.50;12.30;;;;;;;8.69;98.84;101074.44;10439412;28;20044;-77
2022/06/22 03:07:59;;;;;;;18.75;11.93;;;;;;;8.65;98.84;101059.41;10424738;28;20124;-77
2022/06/22 03:12:59;;;;;;;22.45;13.75;;;;;;;8.70;99.66;101065.78;10391953;28;20042;-77
2022/06/22 03:18:00;;;;;;;19.23;13.93;;;;;;;8.69;99.34;101074.44;10399918;28;20052;-77
2022/06/22 03:23:26;;;;;;;23.27;14.02;;;;;;;8.70;99.32;101060.56;10385718;28;20102;-77
2022/06/22 03:28:31;;;;;;;18.73;14.45;;;;;;;8.75;99.80;101048.69;10406470;28;20127;-77
2022/06/22 03:33:39;;;;;;;20.05;14.85;;;;;;;8.84;100.00;101043.13;10369949;28;20042;-77
2022/06/22 03:38:43;;;;;;;22.73;16.70;;;;;;;8.97;100.00;101052.53;10419557;28;20136;-77
2022/06/22 03:43:48;;;;;;;24.17;17.08;;;;;;;9.14;100.00;101050.91;10376501;28;20132;-77
2022/06/22 03:49:01;;;;;;;21.85;17.13;;;;;;;9.32;100.00;101047.53;10418630;28;20035;-77
2022/06/22 03:54:23;;;;;;;22.83;17.23;;;;;;;9.52;100.00;101049.50;10447927;28;20378;-77
2022/06/22 03:59:24;;;;;;;29.80;17.00;;;;;;;9.64;100.00;101053.63;10449848;28;20551;-77
2022/06/22 04:04:24;;;;;;;25.08;16.25;;;;;;;9.79;100.00;101066.59;10448034;28;20037;-77
2022/06/22 04:09:26;;;;;;;27.25;17.88;;;;;;;9.91;100.00;101077.72;10447685;28;20167;-77
2022/06/22 04:14:41;;;;;;;26.52;17.17;;;;;;;10.13;100.00;101063.16;10484658;28;20051;-75
2022/06/22 04:19:45;;;;;;;27.70;19.65;;;;;;;10.42;100.00;101056.88;10471666;28;20041;-77
2022/06/22 04:24:51;;;;;;;27.63;18.30;;;;;;;10.90;100.00;101060.06;10455413;28;20067;-77
2022/06/22 04:30:09;;;;;;;25.08;18.08;;;;;;;11.39;100.00;101064.19;10472113;28;20511;-77
2022/06/22 04:35:33;;;;;;;24.35;16.77;;;;;;;11.85;100.00;101066.34;10433411;28;20044;-77
2022/06/22 04:41:07;;;;;;;25.13;13.57;;;;;;;11.82;99.34;101071.44;10467927;28;20040;-74
2022/06/22 04:46:08;;;;;;;25.00;15.05;;;;;;;11.92;96.33;101072.75;10484681;28;20037;-76
2022/06/22 04:51:20;;;;;;;20.20;13.67;;;;;;;12.01;96.46;101067.94;10451957;28;20037;-76
2022/06/22 04:56:38;;;;;;;21.45;14.43;;;;;;;12.43;96.49;101067.16;10419152;28;20047;-78
2022/06/22 05:01:44;;;;;;;20.98;12.23;;;;;;;13.20;94.16;101071.19;10447904;28;20059;-78
2022/06/22 05:06:53;;;;;;;15.52;11.63;;;;;;;13.95;88.02;101073.22;10391375;28;20041;-78
2022/06/22 05:11:53;;;;;;;15.52;10.93;;;;;;;14.82;82.92;101078.94;10438729;28;20554;-79
2022/06/22 05:17:05;;;;;;;18.45;12.18;;;;;;;15.46;79.95;101073.03;10467621;28;20046;-78
2022/06/22 05:22:12;;;;;;;12.68;9.48;;;;;;;16.44;76.48;101082.03;10431943;28;20044;-78
2022/06/22 05:27:15;;;;;;;10.50;9.23;;;;;;;17.87;69.72;101085.44;10466637;28;20060;-79
2022/06/22 05:32:18;;;;;;;33.70;9.63;;;;;;;18.86;65.25;101085.56;10485641;28;20113;-79
2022/06/22 05:37:27;;;;;;;13.02;8.13;;;;;;;19.52;62.38;101081.34;10467714;28;20029;-79
2022/06/22 05:42:29;;;;;;;9.77;7.72;;;;;;;19.62;61.03;101084.13;10452822;28;20036;-79
2022/06/22 05:47:34;;;;;;;13.10;8.60;;;;;;;19.95;59.18;101086.34;10467321;28;20052;-79
2022/06/22 05:52:38;;;;;;;11.40;8.73;;;;;;;20.45;58.76;101096.66;10427004;28;20485;-79
2022/06/22 05:57:45;;;;;;;12.65;8.50;;;;;;;21.30;55.65;101088.53;10441915;28;20029;-79
2022/06/22 06:02:58;;;;;;;10.60;7.05;;;;;;;22.03;52.16;101091.59;10450321;28;20458;-79
2022/06/22 06:08:00;;;;;;;21.13;9.38;;;;;;;21.93;51.79;101099.56;10463490;28;20037;-80
2022/06/22 06:13:19;;;;;;;8.10;6.88;;;;;;;21.38;54.31;101092.16;10409374;28;20083;-79
2022/06/22 06:18:22;;;;;;;11.43;7.40;;;;;;;21.97;53.24;101079.16;10459765;28;20079;-80
2022/06/22 06:23:33;;;;;;;9.95;7.35;;;;;;;22.27;50.96;101086.34;10448844;28;20059;-79
2022/06/22 06:28:49;;;;;;;13.20;6.17;;;;;;;23.74;47.55;101088.13;10450780;28;20434;-79
2022/06/22 06:33:50;;;;;;;9.77;7.30;;;;;;;24.14;46.46;101081.75;10413086;28;20079;-79
2022/06/22 06:38:57;;;;;;;8.95;5.97;;;;;;;25.54;43.16;101095.84;10414864;28;20039;-79
2022/06/22 06:44:08;;;;;;;7.63;6.72;;;;;;;25.18;42.80;101101.56;10419793;28;20044;-80
2022/06/22 06:49:29;;;;;;;10.93;5.90;;;;;;;25.65;42.31;101086.81;10401670;28;20056;-79
2022/06/22 06:54:35;;;;;;;9.70;6.78;;;;;;;26.31;39.67;101073.44;10427361;28;20041;-79
2022/06/22 06:59:36;;;;;;;11.23;6.80;;;;;;;27.06;39.27;101072.28;10422766;28;20056;-78
2022/06/22 07:04:36;;;;;;;;;;;;;;;27.19;38.20;101063.09;10431608;28;20132;-78
2022/06/22 07:09:37;;;;;;;9.37;5.77;;;;;;;27.77;36.41;101060.19;10424093;28;19979;-79
2022/06/22 07:14:39;;;;;;;11.35;5.85;;;;;;;27.69;37.47;101072.91;10432085;28;20084;-79
2022/06/22 07:20:05;;;;;;;9.50;6.18;;;;;;;27.81;35.93;101051.13;10441307;28;20036;-79
2022/06/22 07:25:19;;;;;;;11.60;6.15;;;;;;;28.10;35.07;101051.44;10379955;28;20034;-76
2022/06/22 07:30:54;;;;;;;11.63;5.97;;;;;;;28.27;36.39;101054.66;10386733;28;20061;-80
2022/06/22 07:35:59;;;;;;;8.98;5.53;;;;;;;28.91;34.81;101052.22;10380297;28;20132;-78
2022/06/22 07:41:18;;;;;;;13.23;7.22;;;;;;;29.54;33.16;101045.13;10367445;28;20117;-80
2022/06/22 07:46:51;;;;;;;12.93;7.13;;;;;;;29.27;35.12;101028.78;10406869;28;20037;-78
2022/06/22 07:51:54;;;;;;;8.68;4.75;;;;;;;29.82;34.77;101032.66;10401405;28;20057;-79
2022/06/22 07:56:58;;;;;;;10.70;5.00;;;;;;;30.27;32.22;101028.56;10419141;28;20040;-79
2022/06/22 08:02:01;;;;;;;7.72;4.55;;;;;;;30.20;31.45;101044.09;10402200;28;20121;-79
2022/06/22 08:07:05;;;;;;;7.75;4.38;;;;;;;29.99;32.86;101051.94;10429670;28;20033;-83
2022/06/22 08:12:33;;;;;;;9.43;4.07;;;;;;;30.88;31.63;101054.47;10439733;28;20060;-79
2022/06/22 08:17:40;;;;;;;9.52;4.20;;;;;;;31.62;31.07;101056.38;10432925;28;20037;-81
2022/06/22 08:22:42;;;;;;;10.35;4.25;;;;;;;31.88;28.89;101043.72;10450121;28;20035;-81
2022/06/22 08:27:43;;;;;;;6.53;3.63;;;;;;;31.69;28.55;101044.38;10454958;28;20075;-81
2022/06/22 08:32:51;;;;;;;8.02;3.65;;;;;;;29.19;33.86;101049.66;10408001;28;20056;-82
2022/06/22 08:37:59;;;;;;;7.07;2.40;;;;;;;30.80;30.05;101049.34;10463240;28;20071;-79
2022/06/22 08:43:06;;;;;;;10.95;3.28;;;;;;;31.30;27.32;101047.66;10407661;28;20036;-80
2022/06/22 08:48:29;;;;;;;7.10;2.22;;;;;;;30.67;29.33;101051.59;10452500;28;20059;-81
2022/06/22 08:54:07;;;;;;;9.18;2.70;;;;;;;30.70;27.75;101059.56;10438351;28;20052;-79
2022/06/22 08:59:34;;;;;;;8.88;3.17;;;;;;;30.35;29.44;101058.03;10475978;28;20052;-79
2022/06/22 09:04:38;;;;;;;6.15;4.15;;;;;;;30.72;28.29;101062.25;10445539;28;20037;-79
2022/06/22 09:09:43;;;;;;;4.75;2.28;;;;;;;31.02;27.85;101063.00;10421737;28;20037;-79
2022/06/22 09:14:52;;;;;;;3.65;2.00;;;;;;;31.11;27.88;101060.91;10388061;28;20037;-79
2022/06/22 09:20:09;;;;;;;6.18;2.75;;;;;;;31.89;26.79;101053.59;10444717;28;20132;-79
2022/06/22 09:25:29;;;;;;;5.63;2.35;;;;;;;31.76;27.41;101045.94;10467581;28;20064;-80
2022/06/22 09:30:37;;;;;;;4.63;2.38;;;;;;;31.29;26.25;101045.88;10410354;28;20394;-79
2022/06/22 09:35:46;;;;;;;6.40;2.03;;;;;;;32.28;27.17;101050.22;10465607;28;20502;-78
2022/06/22 09:41:45;;;;;;;9.25;2.38;;;;;;;32.02;27.16;101052.16;10484053;28;20379;-80
2022/06/22 09:47:13;;;;;;;7.13;2.03;;;;;;;32.42;27.02;101043.41;10290795;28;20053;-81
2022/06/22 09:52:17;;;;;;;9.10;3.03;;;;;;;32.03;25.71;101043.09;10449460;28;20036;-78
2022/06/22 09:57:26;;;;;;;13.05;2.83;;;;;;;32.00;27.28;101039.63;10483745;28;20086;-80
2022/06/22 10:02:45;;;;;;;6.70;2.85;;;;;;;32.57;28.29;101026.50;10484201;28;20051;-79
2022/06/22 10:08:17;;;;;;;7.97;2.42;;;;;;;32.48;26.12;101018.78;10483707;28;20568;-77
2022/06/22 10:13:42;;;;;;;11.45;4.07;;;;;;;32.46;26.78;101026.94;10452395;28;20047;-77
2022/06/22 10:19:04;;;;;;;4.80;2.33;;;;;;;32.47;26.88;101015.16;10464649;28;20032;-78
2022/06/22 10:24:32;;;;;;;6.68;1.98;;;;;;;32.40;26.04;101015.50;10483636;28;20135;-77
2022/06/22 10:29:52;;;;;;;5.93;2.95;;;;;;;32.53;25.33;101007.72;10456894;28;20040;-78
2022/06/22 10:34:55;;;;;;;5.93;2.45;;;;;;;31.90;26.91;100990.41;10463632;28;20040;-79
2022/06/22 10:45:08;;;;;;;5.38;2.78;;;;;;;33.09;25.03;100996.25;10480948;28;20041;-79
2022/06/22 10:45:49;;;;;;;6.40;2.42;;;;;;;33.01;25.18;101001.16;10453212;28;20407;-79
2022/06/22 10:50:56;;;;;;;7.88;2.88;;;;;;;32.20;26.14;100999.09;10455903;28;20041;-79
2022/06/22 10:55:57;;;;;;;5.63;2.70;;;;;;;31.95;27.45;101001.03;10474285;28;20071;-78
2022/06/22 11:01:01;;;;;;;;;;;;;;;31.73;26.30;101002.75;10442603;28;20041;-78
2022/06/22 11:06:15;;;;;;;7.05;2.83;;;;;;;32.13;24.82;101013.81;10444609;28;19921;-78
2022/06/22 11:11:40;;;;;;;5.68;2.17;;;;;;;32.56;25.32;101013.00;10410710;28;20106;-77
2022/06/22 11:16:56;;;;;;;7.70;2.80;;;;;;;32.72;24.62;101014.13;10463660;28;20467;-77
2022/06/22 11:22:17;;;;;;;8.25;2.55;;;;;;;31.93;26.41;101020.91;10438989;28;20044;-76
2022/06/22 11:33:07;;;;;;;8.10;3.10;;;;;;;32.36;28.22;101015.63;10437826;28;20050;-77
2022/06/22 11:38:13;;;;;;;7.15;3.95;;;;;;;32.64;25.75;101027.09;10419975;28;20164;-76
2022/06/22 11:43:28;;;;;;;5.32;2.55;;;;;;;32.35;26.21;101027.41;10426997;28;20395;-76
2022/06/22 11:48:54;;;;;;;5.38;2.50;;;;;;;32.44;27.05;101022.56;10478356;28;20122;-77
2022/06/22 11:53:57;;;;;;;5.22;2.97;;;;;;;33.19;24.53;101023.84;10479632;28;20071;-77
2022/06/22 11:59:22;;;;;;;6.13;2.47;;;;;;;33.36;26.46;101016.78;10484175;28;20049;-77
2022/06/22 12:04:34;;;;;;;5.13;2.60;;;;;;;33.28;24.21;101018.97;10473088;28;20503;-77
2022/06/22 12:09:42;;;;;;;5.57;2.47;;;;;;;32.78;24.65;101026.53;10474312;28;20385;-77
2022/06/22 12:15:09;;;;;;;5.65;2.55;;;;;;;32.68;24.76;101012.50;10463434;28;20067;-77
2022/06/22 12:20:37;;;;;;;7.35;3.35;;;;;;;32.74;26.18;101019.47;10446284;28;20041;-78
2022/06/22 12:26:02;;;;;;;5.70;2.05;;;;;;;32.39;25.12;101014.59;10457344;28;20052;-77
2022/06/22 12:31:23;;;;;;;7.82;3.15;;;;;;;33.15;25.87;100999.63;10483714;28;20050;-77
2022/06/22 12:36:35;;;;;;;4.18;1.73;;;;;;;33.88;23.26;100993.59;10458567;28;20036;-77
2022/06/22 12:41:56;;;;;;;10.30;2.85;;;;;;;32.97;24.41;100988.69;10428637;28;20040;-77
2022/06/22 12:47:21;;;;;;;8.90;2.53;;;;;;;32.90;25.53;100973.63;10445576;28;20124;-77
2022/06/22 12:52:43;;;;;;;6.38;2.25;;;;;;;32.98;24.51;100968.75;10441642;28;20441;-78
2022/06/22 12:58:03;;;;;;;6.68;2.60;;;;;;;32.68;25.65;100960.16;10465670;28;20033;-77
2022/06/22 13:03:03;;;;;;;5.53;2.38;;;;;;;32.41;24.01;100953.13;10468222;28;20507;-78
2022/06/22 13:08:07;;;;;;;6.13;2.00;;;;;;;31.06;26.07;100950.28;10468737;28;20062;-78
2022/06/22 13:13:21;;;;;;;6.25;2.05;;;;;;;30.61;26.67;100943.75;10414877;28;20064;-78
2022/06/22 13:18:25;;;;;;;3.22;1.83;;;;;;;31.74;25.23;100934.22;10422143;28;20456;-77
2022/06/22 13:24:03;;;;;;;7.93;2.20;;;;;;;31.94;24.21;100929.81;10442026;28;20076;-78
2022/06/22 13:29:27;;;;;;;7.93;2.33;;;;;;;32.22;26.36;100928.66;10480406;28;20090;-79
2022/06/22 13:34:48;;;;;;;7.25;2.70;;;;;;;33.08;24.02;100906.88;10403671;28;20156;-78
2022/06/22 13:40:09;;;;;;;;;;;;;;;32.48;24.53;100915.84;10404043;28;20048;-78
2022/06/22 13:45:16;;;;;;;;;;;;;;;32.59;23.73;100916.25;10448773;28;19924;-78
2022/06/22 13:50:27;;;;;;;;;;;;;;;32.78;24.59;100910.88;10467638;28;19928;-78
2022/06/22 13:55:46;;;;;;;;;;;;;;;32.84;25.18;100909.75;10485588;28;19920;-78
2022/06/22 14:01:06;;;;;;;;;;;;;;;32.75;23.49;100910.16;10482328;28;20261;-78
2022/06/22 14:06:11;;;;;;;;;;;;;;;32.78;24.89;100904.59;10461308;28;19928;-78
2022/06/22 14:11:22;;;;;;;;;;;;;;;32.36;23.76;100893.78;10423595;28;20011;-78
2022/06/22 14:16:26;;;;;;;;;;;;;;;31.94;24.55;100897.34;10422491;28;19921;-75
2022/06/22 14:21:34;;;;;;;;;;;;;;;31.76;25.12;100901.69;10437963;28;19931;-76
2022/06/22 14:27:01;;;;;;;;;;;;;;;31.84;24.12;100895.97;10483335;28;19955;-76
2022/06/22 14:32:01;;;;;;;;;;;;;;;30.88;26.82;100901.38;10504006;28;19917;-76
2022/06/22 14:37:14;;;;;;;;;;;;;;;29.73;26.58;100893.56;10483539;28;20275;-77
2022/06/22 14:42:20;;;;;;;;;;;;;;;29.73;28.55;100888.16;10491713;28;19920;-77
2022/06/22 14:47:21;;;;;;;;;;;;;;;29.54;27.61;100877.97;10507199;28;19927;-77
2022/06/22 14:52:26;;;;;;;;;;;;;;;29.53;27.08;100876.22;10505567;28;19924;-77
2022/06/22 14:57:31;;;;;;;;;;;;;;;29.48;27.75;100880.00;10466514;28;19956;-76
2022/06/22 15:02:35;;;;;;;;;;;;;;;28.74;29.33;100875.81;10417853;28;19920;-75
2022/06/22 15:07:50;;;;;;;;;;;;;;;27.90;31.00;100877.97;10482704;28;19920;-75
2022/06/22 15:12:59;;;;;;;;;;;;;;;27.50;31.27;100868.16;10462270;28;19960;-76
2022/06/22 15:18:11;;;;;;;;;;;;;;;27.47;32.08;100855.63;10464963;28;19920;-77
2022/06/22 15:23:19;;;;;;;;;;;;;;;27.48;31.78;100849.34;10464007;28;19928;-75
2022/06/22 15:28:28;;;;;;;;;;;;;;;27.67;31.27;100862.38;10465981;28;19916;-78
2022/06/22 15:33:30;;;;;;;;;;;;;;;27.50;30.69;100857.41;10418599;28;20280;-78
2022/06/22 15:38:36;;;;;;;;;;;;;;;27.36;30.67;100861.25;10490639;28;19970;-78
2022/06/22 15:43:53;;;;;;;;;;;;;;;26.99;30.86;100847.72;10491332;28;20268;-77
2022/06/22 15:49:03;;;;;;;;;;;;;;;26.99;31.55;100853.09;10479538;28;19921;-78
2022/06/22 15:54:05;;;;;;;;;;;;;;;26.97;30.63;100850.47;10444387;28;19960;-78
2022/06/22 15:59:07;;;;;;;;;;;;;;;26.86;31.16;100845.31;10437304;28;20261;-81
2022/06/22 16:04:30;;;;;;;;;;;;;;;26.80;32.42;100850.75;10465225;28;20007;-79
2022/06/22 16:09:33;;;;;;;;;;;;;;;26.76;30.48;100836.53;10431642;28;19920;-80
2022/06/22 16:14:55;;;;;;;;;;;;;;;26.91;32.92;100835.34;10446667;28;19971;-80
2022/06/22 16:20:03;;;;;;;;;;;;;;;26.95;32.08;100833.50;10464117;28;19920;-80
2022/06/22 16:25:03;;;;;;;;;;;;;;;26.99;30.92;100828.94;10486321;28;19921;-79
2022/06/22 16:30:06;;;;;;;;;;;;;;;26.66;31.73;100829.59;10486745;28;19932;-78
2022/06/22 16:35:09;;;;;;;;;;;;;;;26.48;31.42;100825.44;10468964;28;20318;-78
2022/06/22 16:40:12;;;;;;;;;;;;;;;26.29;32.21;100825.81;10484029;28;19920;-78
2022/06/22 16:45:16;;;;;;;;;;;;;;;26.25;33.56;100829.44;10467819;28;19939;-77
2022/06/22 16:50:17;;;;;;;;;;;;;;;26.33;33.37;100823.97;10467666;28;19920;-80
2022/06/22 16:55:19;;;;;;;;;;;;;;;26.45;32.75;100818.38;10487528;28;19921;-78
2022/06/22 17:00:20;;;;;;;;;;;;;;;26.42;32.76;100823.78;10469208;28;19959;-78
2022/06/22 17:05:20;;;;;;;;;;;;;;;26.36;33.37;100815.84;10470248;28;20050;-78
2022/06/22 17:10:41;;;;;;;;;;;;;;;26.28;32.62;100805.25;10485630;28;20376;-77
2022/06/22 17:15:53;;;;;;;;;;;;;;;26.09;32.92;100824.34;10484887;28;19920;-77
2022/06/22 17:20:54;;;;;;;;;;;;;;;25.83;33.68;100814.06;10455673;28;19924;-77
2022/06/22 17:26:27;;;;;;;;;;;;;;;25.66;32.18;100817.00;10452919;28;19921;-77
2022/06/22 17:31:31;;;;;;;;;;;;;;;25.40;33.96;100806.69;10440220;28;20269;-77
2022/06/22 17:36:50;;;;;;;;;;;;;;;25.39;33.59;100819.19;10450997;28;19917;-78
2022/06/22 17:41:51;;;;;;;;;;;;;;;25.24;32.85;100822.97;10444528;28;19928;-78
2022/06/22 17:46:53;;;;;;;;;;;;;;;25.10;34.04;100815.13;10444730;28;19921;-78
2022/06/22 17:56:28;;;;;;;6.95;1.98;;;;;;;24.71;34.63;100822.72;10529140;27;20777;-78
2022/06/22 18:01:35;;;;;;;3.20;2.00;;;;;;;24.53;34.93;100843.44;10550323;27;20109;-79
2022/06/22 18:06:43;;;;;;;3.38;1.88;;;;;;;24.30;34.61;100841.00;10500238;28;20036;-79
2022/06/22 18:11:47;;;;;;;5.80;2.47;;;;;;;24.13;34.60;100844.72;10533991;28;20507;-79
2022/06/22 18:16:58;;;;;;;5.47;1.85;;;;;;;23.87;35.74;100837.78;10531640;28;20047;-79
2022/06/22 18:22:04;;;;;;;4.90;1.55;;;;;;;23.70;35.87;100847.72;10543283;27;20036;-79
2022/06/22 18:27:05;;;;;;;4.55;3.22;;;;;;;23.64;37.15;100847.75;10535552;27;20040;-78
2022/06/22 18:32:33;;;;;;;4.83;1.70;;;;;;;23.39;37.95;100847.91;10493734;28;20041;-79
2022/06/22 18:37:39;;;;;;;2.72;2.13;;;;;;;23.33;36.87;100839.94;10515649;28;20149;-79
2022/06/22 18:42:53;;;;;;;3.75;1.73;;;;;;;23.08;37.48;100851.56;10533875;27;20047;-78
2022/06/22 18:48:04;;;;;;;8.52;2.33;;;;;;;22.66;38.44;100841.06;10541740;27;20031;-78
2022/06/22 18:53:31;;;;;;;4.65;1.95;;;;;;;22.27;40.86;100857.09;10497815;27;20120;-78
2022/06/22 18:58:39;;;;;;;3.13;1.40;;;;;;;21.80;44.60;100857.97;10516091;27;20045;-78
2022/06/22 19:04:01;;;;;;;5.47;1.98;;;;;;;21.30;45.76;100851.66;10528009;27;20045;-78
2022/06/22 19:09:33;;;;;;;3.25;1.75;;;;;;;20.91;47.13;100847.06;10525102;28;20052;-79
2022/06/22 19:14:36;;;;;;;5.18;2.05;;;;;;;20.60;46.61;100851.28;10461118;28;20053;-79
2022/06/22 19:20:07;;;;;;;5.30;2.22;;;;;;;20.28;48.96;100857.28;10456058;28;20024;-79
2022/06/22 19:25:10;;;;;;;4.72;2.28;;;;;;;20.00;48.89;100860.63;10457539;28;20049;-80
2022/06/22 19:30:15;;;;;;;10.15;5.40;;;;;;;19.78;48.86;100856.84;10485528;28;20068;-79
2022/06/22 19:35:29;;;;;;;5.82;2.72;;;;;;;19.60;49.17;100866.41;10446399;28;20041;-80
2022/06/22 19:40:30;;;;;;;3.38;1.83;;;;;;;19.39;49.50;100872.38;10438568;28;20044;-80
2022/06/22 19:45:46;;;;;;;4.75;1.80;;;;;;;19.14;50.33;100885.34;10530340;28;20040;-80
2022/06/22 19:50:49;;;;;;;6.97;2.17;;;;;;;18.84;51.71;100891.09;10522797;28;20055;-80
2022/06/22 19:56:02;;;;;;;4.22;2.10;;;;;;;18.41;53.78;100892.22;10526782;28;20042;-79
2022/06/22 20:01:07;;;;;;;;;;;;;;;18.24;55.21;100906.97;10489723;28;20126;-79
2022/06/22 20:06:08;;;;;;;6.35;2.03;;;;;;;17.91;57.25;100920.50;10486263;28;20424;-80
2022/06/22 20:11:12;;;;;;;4.85;2.05;;;;;;;17.66;58.25;100921.81;10462281;28;20090;-79
2022/06/22 20:16:12;;;;;;;5.35;2.55;;;;;;;17.32;59.27;100924.66;10496351;28;20480;-79
2022/06/22 20:21:16;;;;;;;5.78;2.15;;;;;;;17.05;60.06;100932.91;10488708;28;20045;-80
2022/06/22 20:26:32;;;;;;;4.68;2.40;;;;;;;16.82;61.14;100934.97;10508400;28;20544;-80
2022/06/22 20:31:51;;;;;;;6.03;2.15;;;;;;;16.66;62.22;100939.91;10524499;28;20499;-80
2022/06/22 20:37:03;;;;;;;3.47;2.25;;;;;;;16.54;62.13;100948.44;10523410;28;20044;-79
2022/06/22 20:42:29;;;;;;;6.15;3.72;;;;;;;16.36;63.17;100953.28;10484766;28;20429;-79
2022/06/22 20:48:02;;;;;;;4.65;2.50;;;;;;;16.19;64.93;100956.38;10496616;28;20050;-80
2022/06/22 20:53:02;;;;;;;;;;;;;;;16.08;65.81;100966.63;10434093;28;20041;-80
2022/06/22 20:58:11;;;;;;;6.70;3.60;;;;;;;15.88;66.08;100971.41;10462432;28;19920;-79
2022/06/22 21:03:12;;;;;;;4.28;1.90;;;;;;;15.79;65.91;100963.19;10509975;28;20105;-79
2022/06/22 21:08:22;;;;;;;3.05;2.35;;;;;;;15.57;66.02;100965.22;10498752;28;20364;-80
2022/06/22 21:13:41;;;;;;;5.45;2.00;;;;;;;15.52;67.90;100966.84;10525638;28;20403;-80
2022/06/22 21:18:49;;;;;;;5.63;2.60;;;;;;;15.42;68.39;100973.56;10451227;28;20500;-79
2022/06/22 21:23:55;;;;;;;8.02;3.75;;;;;;;15.31;69.01;100973.25;10522017;28;20119;-80
2022/06/22 21:34:18;;;;;;;7.22;3.40;;;;;;;15.11;67.43;100985.81;10455024;28;20197;-81
2022/06/22 21:39:23;;;;;;;6.28;2.65;;;;;;;15.06;67.83;100993.59;10455544;28;20045;-79
2022/06/22 21:44:29;;;;;;;4.45;3.03;;;;;;;14.93;67.91;100996.69;10423281;28;20497;-80
2022/06/22 21:49:36;;;;;;;5.38;2.47;;;;;;;14.88;68.94;100995.66;10455982;28;20409;-79
2022/06/22 21:54:47;;;;;;;6.55;2.75;;;;;;;14.85;69.30;100993.81;10477021;28;20413;-79
2022/06/22 21:59:51;;;;;;;5.13;2.75;;;;;;;14.86;68.65;101006.13;10449784;28;20488;-80
2022/06/22 22:05:17;;;;;;;6.72;2.70;;;;;;;14.81;68.53;101002.44;10431223;28;20241;-79
2022/06/22 22:10:19;;;;;;;5.75;2.17;;;;;;;14.73;68.48;101003.94;10481391;28;20388;-79
2022/06/22 22:15:25;;;;;;;7.85;2.70;;;;;;;14.73;70.52;101011.84;10466597;28;20395;-79
2022/06/22 22:20:28;;;;;;;3.53;2.60;;;;;;;14.70;69.47;101007.38;10465980;28;20037;-79
2022/06/22 22:25:39;;;;;;;4.97;3.40;;;;;;;14.68;68.67;101009.91;10474938;28;20052;-79
2022/06/22 22:30:43;;;;;;;11.20;2.40;;;;;;;14.65;69.26;101008.94;10425979;28;20051;-79
2022/06/22 22:35:44;;;;;;;5.35;2.55;;;;;;;14.61;69.14;101001.78;10436295;28;20056;-79
2022/06/22 22:40:50;;;;;;;3.85;2.95;;;;;;;14.56;69.60;100992.84;10482032;28;20136;-79
2022/06/22 22:45:50;;;;;;;8.20;3.47;;;;;;;14.57;70.74;100994.63;10460954;28;20032;-79
2022/06/22 22:50:51;;;;;;;9.30;3.20;;;;;;;14.53;70.78;100983.97;10473041;28;20037;-79
2022/06/22 22:55:51;;;;;;;4.25;2.53;;;;;;;14.46;70.01;100983.72;10470575;28;20052;-79
2022/06/22 23:00:52;;;;;;;5.82;3.10;;;;;;;14.48;70.00;100982.03;10489252;28;20041;-78
2022/06/22 23:05:55;;;;;;;5.68;3.40;;;;;;;14.38;69.96;100986.09;10477960;28;20075;-79
2022/06/22 23:11:00;;;;;;;4.32;3.00;;;;;;;14.29;69.90;100991.94;10452331;28;20047;-79
2022/06/22 23:16:01;;;;;;;4.03;2.60;;;;;;;14.19;70.26;100985.47;10475257;28;20037;-79
2022/06/22 23:21:02;;;;;;;11.03;3.13;;;;;;;14.13;69.62;100990.53;10447410;28;20056;-79
2022/06/22 23:26:06;;;;;;;4.78;3.17;;;;;;;14.14;69.46;100986.13;10459188;28;20051;-79
2022/06/22 23:31:30;;;;;;;4.03;2.78;;;;;;;14.04;69.68;100988.44;10487961;28;20037;-79
2022/06/22 23:36:36;;;;;;;6.20;2.50;;;;;;;13.97;69.62;100994.31;10457087;28;20370;-79
2022/06/22 23:41:36;;;;;;;6.40;2.40;;;;;;;13.98;69.60;100982.97;10446384;28;20119;-79
2022/06/22 23:46:42;;;;;;;8.32;4.10;;;;;;;13.97;69.85;100981.19;10463338;28;20488;-79
2022/06/22 23:51:46;;;;;;;4.35;2.70;;;;;;;13.98;70.42;100972.44;10450786;28;20124;-78
2022/06/22 23:56:55;;;;;;;7.22;4.72;;;;;;;14.02;70.49;100974.34;10427965;28;20052;-78
